createdAt,value
2018-11-23T00:00:30.641Z,37.20
2018-11-23T00:03:17.083Z,27.90
2018-11-23T00:06:03.785Z,28.63
2018-11-23T00:08:50.206Z,34.07
2018-11-23T00:11:36.931Z,34.73
2018-11-23T00:14:23.353Z,33.67
2018-11-23T00:17:10.070Z,34.87
2018-11-23T00:19:56.498Z,33.60
2018-11-23T00:22:43.035Z,36.23
2018-11-23T00:25:29.545Z,28.63
2018-11-23T00:28:16.052Z,29.80
2018-11-23T00:31:02.475Z,33.03
2018-11-23T00:33:48.969Z,28.10
2018-11-23T00:36:35.462Z,29.50
2018-11-23T00:39:21.979Z,35.50
2018-11-23T00:42:08.402Z,28.17
2018-11-23T00:44:54.851Z,38.03
2018-11-23T00:47:41.995Z,32.60
2018-11-23T00:50:28.500Z,32.90
2018-11-23T00:53:15.168Z,36.33
2018-11-23T00:56:01.740Z,25.90
2018-11-23T00:58:48.166Z,33.00
2018-11-23T01:01:54.305Z,30.10
2018-11-23T01:04:40.760Z,34.47
2018-11-23T01:07:27.216Z,31.70
2018-11-23T01:10:14.180Z,34.80
2018-11-23T01:13:00.621Z,35.20
2018-11-23T01:15:47.050Z,31.60
2018-11-23T01:18:33.489Z,31.47
2018-11-23T01:21:20.198Z,37.17
2018-11-23T01:24:06.642Z,30.27
2018-11-23T01:26:53.059Z,33.50
2018-11-23T01:29:39.772Z,34.37
2018-11-23T01:32:26.222Z,30.50
2018-11-23T01:38:06.010Z,29.53
2018-11-23T01:40:52.481Z,33.13
2018-11-23T01:43:38.930Z,35.03
2018-11-23T01:46:25.400Z,33.63
2018-11-23T01:49:12.058Z,32.10
2018-11-23T01:51:58.539Z,36.60
2018-11-23T01:54:44.986Z,35.63
2018-11-23T01:57:31.772Z,37.17
2018-11-23T02:00:19.477Z,25.50
2018-11-23T02:03:05.937Z,34.53
2018-11-23T02:05:52.638Z,31.53
2018-11-23T02:08:39.098Z,35.23
2018-11-23T02:11:26.193Z,31.13
2018-11-23T02:14:12.903Z,32.43
2018-11-23T02:16:59.316Z,34.13
2018-11-23T02:19:45.772Z,33.90
2018-11-23T02:22:32.513Z,36.27
2018-11-23T02:25:18.961Z,38.07
2018-11-23T02:28:05.370Z,32.30
2018-11-23T02:30:51.892Z,35.47
2018-11-23T02:33:39.817Z,31.33
2018-11-23T02:36:26.391Z,33.40
2018-11-23T02:39:12.845Z,35.80
2018-11-23T02:41:59.295Z,41.53
2018-11-23T02:44:45.720Z,37.90
2018-11-23T02:47:32.186Z,41.40
2018-11-23T02:50:18.598Z,38.47
2018-11-23T02:53:05.378Z,36.23
2018-11-23T02:55:51.795Z,32.90
2018-11-23T02:58:38.253Z,33.27
2018-11-23T03:01:24.684Z,37.87
2018-11-23T03:04:11.531Z,40.43
2018-11-23T03:06:58.196Z,31.87
2018-11-23T03:09:44.659Z,36.53
2018-11-23T03:12:31.083Z,33.87
2018-11-23T03:15:18.417Z,32.27
2018-11-23T03:18:04.838Z,40.63
2018-11-23T03:20:51.515Z,32.83
2018-11-23T03:23:38.188Z,44.57
2018-11-23T03:26:24.899Z,41.97
2018-11-23T03:29:11.328Z,33.27
2018-11-23T03:31:57.774Z,37.23
2018-11-23T03:34:44.445Z,38.33
2018-11-23T03:37:31.151Z,37.47
2018-11-23T03:40:17.578Z,33.00
2018-11-23T03:43:04.299Z,33.97
2018-11-23T03:45:51.253Z,31.83
2018-11-23T03:48:37.742Z,40.87
2018-11-23T03:51:24.174Z,40.47
2018-11-23T03:54:10.890Z,32.00
2018-11-23T03:56:57.377Z,37.17
2018-11-23T03:59:44.133Z,29.00
2018-11-23T04:02:30.598Z,39.90
2018-11-23T04:05:17.405Z,40.00
2018-11-23T04:08:03.828Z,36.57
2018-11-23T04:10:50.339Z,36.00
2018-11-23T04:13:37.595Z,46.07
2018-11-23T04:16:24.238Z,33.00
2018-11-23T04:19:10.911Z,34.17
2018-11-23T04:21:57.361Z,38.27
2018-11-23T04:24:43.782Z,44.40
2018-11-23T04:27:30.858Z,36.93
2018-11-23T04:30:17.467Z,38.23
2018-11-23T04:33:04.272Z,33.80
2018-11-23T04:35:50.749Z,37.73
2018-11-23T04:38:37.169Z,38.50
2018-11-23T04:41:23.777Z,38.30
2018-11-23T04:44:10.446Z,40.27
2018-11-23T04:46:56.870Z,38.43
2018-11-23T04:49:43.918Z,37.60
2018-11-23T04:52:30.390Z,35.73
2018-11-23T04:55:16.906Z,33.20
2018-11-23T04:58:03.574Z,41.70
2018-11-23T05:00:50.018Z,42.53
2018-11-23T05:03:36.434Z,47.63
2018-11-23T05:06:16.627Z,39.53
2018-11-23T05:08:56.404Z,42.03
2018-11-23T05:11:36.152Z,33.37
2018-11-23T05:14:15.830Z,38.67
2018-11-23T05:19:54.830Z,36.73
2018-11-23T05:22:34.604Z,44.97
2018-11-23T05:25:14.951Z,47.57
2018-11-23T05:27:54.750Z,42.00
2018-11-23T05:30:34.592Z,48.23
2018-11-23T05:33:14.177Z,44.40
2018-11-23T05:35:54.032Z,52.73
2018-11-23T05:38:33.395Z,44.57
2018-11-23T05:41:12.944Z,53.00
2018-11-23T05:43:52.842Z,44.67
2018-11-23T05:46:33.020Z,38.57
2018-11-23T05:49:13.150Z,42.53
2018-11-23T05:51:52.523Z,44.43
2018-11-23T05:54:31.994Z,45.40
2018-11-23T05:57:11.645Z,47.53
2018-11-23T05:59:51.125Z,47.00
2018-11-23T06:02:31.106Z,45.67
2018-11-23T06:05:11.345Z,48.00
2018-11-23T06:07:50.676Z,43.13
2018-11-23T06:10:30.468Z,42.17
2018-11-23T06:13:09.914Z,43.90
2018-11-23T06:15:49.605Z,43.43
2018-11-23T06:18:29.114Z,42.07
2018-11-23T06:21:08.811Z,34.43
2018-11-23T06:23:48.350Z,41.60
2018-11-23T06:26:28.226Z,46.83
2018-11-23T06:29:07.802Z,42.03
2018-11-23T06:31:47.520Z,40.57
2018-11-23T06:34:27.064Z,46.73
2018-11-23T06:37:06.632Z,43.10
2018-11-23T06:39:46.706Z,38.07
2018-11-23T06:42:26.773Z,46.53
2018-11-23T06:45:06.518Z,45.97
2018-11-23T06:47:45.904Z,45.37
2018-11-23T06:50:25.474Z,38.03
2018-11-23T06:53:05.843Z,44.27
2018-11-23T06:55:45.274Z,43.10
2018-11-23T06:58:25.601Z,53.67
2018-11-23T07:01:05.383Z,46.20
2018-11-23T07:03:45.380Z,46.20
2018-11-23T07:06:24.939Z,45.53
2018-11-23T07:09:04.651Z,47.80
2018-11-23T07:11:44.033Z,41.87
2018-11-23T07:14:23.586Z,42.60
2018-11-23T07:17:03.031Z,40.97
2018-11-23T07:19:42.547Z,43.77
2018-11-23T07:22:22.145Z,41.60
2018-11-23T07:25:02.345Z,30.53
2018-11-23T07:27:42.809Z,43.20
2018-11-23T07:30:24.426Z,37.93
2018-11-23T07:33:03.748Z,38.37
2018-11-23T07:35:43.195Z,41.43
2018-11-23T07:38:22.987Z,36.33
2018-11-23T07:41:02.805Z,49.63
2018-11-23T07:43:42.470Z,34.33
2018-11-23T07:46:22.201Z,40.90
2018-11-23T07:49:02.411Z,37.70
2018-11-23T07:51:58.332Z,45.37
2018-11-23T07:54:25.744Z,36.10
2018-11-23T07:56:52.867Z,33.43
2018-11-23T07:59:19.987Z,38.73
2018-11-23T08:01:47.268Z,35.83
2018-11-23T08:04:14.384Z,36.27
2018-11-23T08:06:41.499Z,38.97
2018-11-23T08:09:08.915Z,39.80
2018-11-23T08:11:36.030Z,45.77
2018-11-23T08:14:03.276Z,36.70
2018-11-23T08:16:30.389Z,36.07
2018-11-23T08:18:57.517Z,38.90
2018-11-23T08:21:24.628Z,34.33
2018-11-23T08:23:51.819Z,41.93
2018-11-23T08:26:18.949Z,34.37
2018-11-23T08:28:46.087Z,41.43
2018-11-23T08:31:13.240Z,43.83
2018-11-23T08:33:40.404Z,32.93
2018-11-23T08:36:07.546Z,44.13
2018-11-23T08:38:34.749Z,37.47
2018-11-23T08:41:01.912Z,35.80
2018-11-23T08:43:29.027Z,38.40
2018-11-23T08:45:56.152Z,40.90
2018-11-23T08:48:23.297Z,42.30
2018-11-23T08:50:50.428Z,33.53
2018-11-23T08:53:17.549Z,38.13
2018-11-23T08:55:44.680Z,39.90
2018-11-23T08:58:11.813Z,38.50
2018-11-23T09:00:38.948Z,38.43
2018-11-23T09:03:06.108Z,39.17
2018-11-23T09:05:33.237Z,38.60
2018-11-23T09:08:00.382Z,45.97
2018-11-23T09:10:28.789Z,42.30
2018-11-23T09:12:57.345Z,47.70
2018-11-23T09:15:24.467Z,37.40
2018-11-23T09:17:51.617Z,44.27
2018-11-23T09:20:19.151Z,45.23
2018-11-23T09:22:46.342Z,39.43
2018-11-23T09:25:14.993Z,43.57
2018-11-23T09:27:42.124Z,41.53
2018-11-23T09:30:11.240Z,41.03
2018-11-23T09:32:38.355Z,39.43
2018-11-23T09:35:06.354Z,35.37
2018-11-23T09:37:33.498Z,39.10
2018-11-23T09:40:00.623Z,42.67
2018-11-23T09:42:27.748Z,37.23
2018-11-23T09:44:54.912Z,48.07
2018-11-23T09:47:22.054Z,39.67
2018-11-23T09:49:49.212Z,43.30
2018-11-23T09:52:16.324Z,37.33
2018-11-23T09:54:43.442Z,39.37
2018-11-23T09:57:10.577Z,38.13
2018-11-23T09:59:37.715Z,38.77
2018-11-23T10:02:04.880Z,37.30
2018-11-23T10:04:32.004Z,46.07
2018-11-23T10:06:59.116Z,38.70
2018-11-23T10:09:26.255Z,42.20
2018-11-23T10:11:53.367Z,40.67
2018-11-23T10:14:20.484Z,49.07
2018-11-23T10:16:47.588Z,37.30
2018-11-23T10:19:26.968Z,38.90
2018-11-23T10:21:54.148Z,36.33
2018-11-23T10:24:21.482Z,40.40
2018-11-23T10:26:48.828Z,35.60
2018-11-23T10:29:15.954Z,40.50
2018-11-23T10:31:43.080Z,40.43
2018-11-23T10:34:10.277Z,43.77
2018-11-23T10:36:37.426Z,36.57
2018-11-23T10:39:05.756Z,53.87
2018-11-23T10:41:32.892Z,41.23
2018-11-23T10:44:00.009Z,35.33
2018-11-23T10:46:27.123Z,33.87
2018-11-23T10:48:54.267Z,35.23
2018-11-23T10:51:21.392Z,37.90
2018-11-23T10:53:48.528Z,33.03
2018-11-23T10:56:15.644Z,35.97
2018-11-23T10:58:42.811Z,34.93
2018-11-23T11:01:15.776Z,32.00
2018-11-23T11:03:48.600Z,33.17
2018-11-23T11:06:21.437Z,31.83
2018-11-23T11:08:48.569Z,37.10
2018-11-23T11:11:15.730Z,34.67
2018-11-23T11:13:42.852Z,42.10
2018-11-23T11:16:09.977Z,34.80
2018-11-23T11:18:37.112Z,32.70
2018-11-23T11:21:04.343Z,35.73
2018-11-23T11:23:31.483Z,37.53
2018-11-23T11:25:58.604Z,36.30
2018-11-23T11:28:25.724Z,37.97
2018-11-23T11:30:53.071Z,33.57
2018-11-23T11:33:20.183Z,35.53
2018-11-23T11:35:47.303Z,35.93
2018-11-23T11:38:14.432Z,31.30
2018-11-23T11:40:41.580Z,37.43
2018-11-23T11:43:08.706Z,35.63
2018-11-23T11:45:35.854Z,40.17
2018-11-23T11:48:03.025Z,37.23
2018-11-23T11:50:30.227Z,32.10
2018-11-23T11:52:57.335Z,37.70
2018-11-23T11:55:24.468Z,34.27
2018-11-23T11:57:51.616Z,36.53
2018-11-23T12:00:21.570Z,34.00
2018-11-23T12:02:48.708Z,33.33
2018-11-23T12:05:15.840Z,30.50
2018-11-23T12:07:42.964Z,31.37
2018-11-23T12:10:13.695Z,32.83
2018-11-23T12:12:40.846Z,33.37
2018-11-23T12:15:09.044Z,35.20
2018-11-23T12:17:36.212Z,35.83
2018-11-23T12:20:05.373Z,31.07
2018-11-23T12:22:32.493Z,35.67
2018-11-23T12:24:59.624Z,36.70
2018-11-23T12:27:29.319Z,30.87
2018-11-23T12:29:53.940Z,35.10
2018-11-23T12:32:21.060Z,33.17
2018-11-23T12:34:48.158Z,32.37
2018-11-23T12:37:15.301Z,36.07
2018-11-23T12:39:42.436Z,30.97
2018-11-23T12:42:09.602Z,33.30
2018-11-23T12:44:36.731Z,35.80
2018-11-23T12:47:04.324Z,37.43
2018-11-23T12:49:31.451Z,32.50
2018-11-23T12:51:58.641Z,33.60
2018-11-23T12:54:25.787Z,33.70
2018-11-23T12:56:56.865Z,31.67
2018-11-23T12:59:23.989Z,42.27
2018-11-23T13:01:51.117Z,29.23
2018-11-23T13:04:18.261Z,28.93
2018-11-23T13:06:45.448Z,30.57
2018-11-23T13:09:12.630Z,31.23
2018-11-23T13:11:40.950Z,34.53
2018-11-23T13:14:08.444Z,32.47
2018-11-23T13:16:35.611Z,32.33
2018-11-23T13:19:02.804Z,34.07
2018-11-23T13:21:29.981Z,30.27
2018-11-23T13:23:57.123Z,30.43
2018-11-23T13:26:24.292Z,29.80
2018-11-23T13:28:51.478Z,27.97
2018-11-23T13:31:18.677Z,27.27
2018-11-23T13:33:45.841Z,28.03
2018-11-23T13:36:12.995Z,30.17
2018-11-23T13:38:40.250Z,33.00
2018-11-23T13:41:07.512Z,29.57
2018-11-23T13:43:34.695Z,30.60
2018-11-23T13:46:01.857Z,26.70
2018-11-23T13:48:29.050Z,26.70
2018-11-23T13:50:56.212Z,29.70
2018-11-23T13:53:23.397Z,34.70
2018-11-23T13:55:50.972Z,27.70
2018-11-23T13:58:18.123Z,26.30
2018-11-23T14:00:45.303Z,32.30
2018-11-23T14:03:12.462Z,30.07
2018-11-23T14:05:39.600Z,28.03
2018-11-23T14:08:06.751Z,28.30
2018-11-23T14:10:33.910Z,35.70
2018-11-23T14:13:01.048Z,29.17
2018-11-23T14:15:29.383Z,35.40
2018-11-23T14:17:57.548Z,27.23
2018-11-23T14:20:25.367Z,32.10
2018-11-23T14:22:52.739Z,29.77
2018-11-23T14:25:21.252Z,28.50
2018-11-23T14:27:49.052Z,28.37
2018-11-23T14:30:18.565Z,31.87
2018-11-23T14:32:46.098Z,27.33
2018-11-23T14:35:15.497Z,26.00
2018-11-23T14:37:43.252Z,23.67
2018-11-23T14:40:11.330Z,25.43
2018-11-23T14:42:39.509Z,28.70
2018-11-23T14:45:24.772Z,29.03
2018-11-23T14:47:52.793Z,22.23
2018-11-23T14:50:21.439Z,27.47
2018-11-23T14:52:49.607Z,23.17
2018-11-23T14:55:17.170Z,27.13
2018-11-23T14:57:44.931Z,26.67
2018-11-23T15:00:14.224Z,26.37
2018-11-23T15:02:41.889Z,26.43
2018-11-23T15:05:09.047Z,21.80
2018-11-23T15:07:36.810Z,28.00
2018-11-23T15:10:06.798Z,26.87
2018-11-23T15:12:33.949Z,34.50
2018-11-23T15:15:01.082Z,27.57
2018-11-23T15:17:33.921Z,26.47
2018-11-23T15:20:01.134Z,27.13
2018-11-23T15:22:28.277Z,27.43
2018-11-23T15:24:55.435Z,26.73
2018-11-23T15:27:22.590Z,32.53
2018-11-23T15:29:50.087Z,29.70
2018-11-23T15:32:17.296Z,27.07
2018-11-23T15:34:44.488Z,28.00
2018-11-23T15:37:11.823Z,25.07
2018-11-23T15:39:38.956Z,24.33
2018-11-23T15:42:06.143Z,33.33
2018-11-23T15:44:33.297Z,28.07
2018-11-23T15:47:00.437Z,24.50
2018-11-23T15:49:27.611Z,24.60
2018-11-23T15:51:55.032Z,29.43
2018-11-23T15:54:22.222Z,29.53
2018-11-23T15:56:49.368Z,28.63
2018-11-23T15:59:16.535Z,24.87
2018-11-23T16:01:43.730Z,25.27
2018-11-23T16:04:10.898Z,27.33
2018-11-23T16:06:38.088Z,29.67
2018-11-23T16:09:08.759Z,30.03
2018-11-23T16:11:36.283Z,26.77
2018-11-23T16:14:03.451Z,29.03
2018-11-23T16:16:30.601Z,26.20
2018-11-23T16:18:57.767Z,24.60
2018-11-23T16:21:24.917Z,25.57
2018-11-23T16:23:52.109Z,23.10
2018-11-23T16:26:19.273Z,26.57
2018-11-23T16:28:46.407Z,26.67
2018-11-23T16:31:13.549Z,33.90
2018-11-23T16:33:40.708Z,29.57
2018-11-23T16:36:07.856Z,22.10
2018-11-23T16:38:35.009Z,20.77
2018-11-23T16:41:02.168Z,23.23
2018-11-23T16:43:29.333Z,18.97
2018-11-23T16:45:56.505Z,27.30
2018-11-23T16:48:23.672Z,26.53
2018-11-23T16:50:50.829Z,28.13
2018-11-23T16:53:18.007Z,23.60
2018-11-23T16:55:45.157Z,29.97
2018-11-23T16:58:13.021Z,27.33
2018-11-23T17:00:41.539Z,28.10
2018-11-23T17:03:11.322Z,22.57
2018-11-23T17:05:39.996Z,24.40
2018-11-23T17:08:07.782Z,24.00
2018-11-23T17:10:34.981Z,24.93
2018-11-23T17:13:02.133Z,22.67
2018-11-23T17:15:29.626Z,23.17
2018-11-23T17:17:56.773Z,22.27
2018-11-23T17:20:25.268Z,28.23
2018-11-23T17:22:53.561Z,18.93
2018-11-23T17:25:21.730Z,22.07
2018-11-23T17:27:49.134Z,23.20
2018-11-23T17:30:20.722Z,23.23
2018-11-23T17:32:47.883Z,20.07
2018-11-23T17:35:15.033Z,33.67
2018-11-23T17:37:42.405Z,23.60
2018-11-23T17:40:11.064Z,18.20
2018-11-23T17:42:38.205Z,18.93
2018-11-23T17:45:09.911Z,21.30
2018-11-23T17:47:37.060Z,18.07
2018-11-23T17:50:06.324Z,23.13
2018-11-23T17:52:33.480Z,20.67
2018-11-23T17:55:00.623Z,21.00
2018-11-23T17:57:27.824Z,20.03
2018-11-23T17:59:54.997Z,21.00
2018-11-23T18:02:24.322Z,17.67
2018-11-23T18:04:51.461Z,21.63
2018-11-23T18:07:18.620Z,17.27
2018-11-23T18:09:45.803Z,22.70
2018-11-23T18:12:13.266Z,25.10
2018-11-23T18:14:40.409Z,21.87
2018-11-23T18:17:07.598Z,22.63
2018-11-23T18:19:34.768Z,23.87
2018-11-23T18:22:01.933Z,21.57
2018-11-23T18:24:29.111Z,27.27
2018-11-23T18:26:56.260Z,21.60
2018-11-23T18:29:23.402Z,21.13
2018-11-23T18:31:50.567Z,22.50
2018-11-23T18:34:17.718Z,26.13
2018-11-23T18:36:44.915Z,28.00
2018-11-23T18:39:12.047Z,25.27
2018-11-23T18:41:39.255Z,26.70
2018-11-23T18:44:06.420Z,25.50
2018-11-23T18:46:33.636Z,25.20
2018-11-23T18:49:00.835Z,22.50
2018-11-23T18:51:27.998Z,26.00
2018-11-23T18:53:55.273Z,22.73
2018-11-23T18:56:22.511Z,28.23
2018-11-23T18:58:49.675Z,24.37
2018-11-23T19:01:16.788Z,27.93
2018-11-23T19:03:43.924Z,25.53
2018-11-23T19:06:11.059Z,27.67
2018-11-23T19:08:38.189Z,25.33
2018-11-23T19:11:05.443Z,27.27
2018-11-23T19:13:32.608Z,25.33
2018-11-23T19:15:59.727Z,28.50
2018-11-23T19:18:26.841Z,28.50
2018-11-23T19:20:53.965Z,26.63
2018-11-23T19:23:21.130Z,27.43
2018-11-23T19:25:48.268Z,25.70
2018-11-23T19:28:15.391Z,26.33
2018-11-23T19:30:42.507Z,26.60
2018-11-23T19:33:09.642Z,31.57
2018-11-23T19:35:36.748Z,29.73
2018-11-23T19:38:04.025Z,32.30
2018-11-23T19:40:31.158Z,27.37
2018-11-23T19:42:58.285Z,28.77
2018-11-23T19:45:25.420Z,29.63
2018-11-23T19:47:52.543Z,29.90
2018-11-23T19:50:19.689Z,27.43
2018-11-23T19:52:46.813Z,27.63
2018-11-23T19:55:15.310Z,31.60
2018-11-23T19:57:42.450Z,26.70
2018-11-23T20:00:14.322Z,24.67
2018-11-23T20:02:41.470Z,31.87
2018-11-23T20:05:08.612Z,28.87
2018-11-23T20:07:35.792Z,27.63
2018-11-23T20:10:03.561Z,30.33
2018-11-23T20:12:30.692Z,26.13
2018-11-23T20:14:57.821Z,26.43
2018-11-23T20:17:24.944Z,31.70
2018-11-23T20:19:52.068Z,28.57
2018-11-23T20:22:19.244Z,30.30
2018-11-23T20:24:46.405Z,29.87
2018-11-23T20:27:13.556Z,26.97
2018-11-23T20:29:40.696Z,30.17
2018-11-23T20:32:07.833Z,24.53
2018-11-23T20:34:35.012Z,29.47
2018-11-23T20:37:02.168Z,30.70
2018-11-23T20:39:29.296Z,30.90
2018-11-23T20:41:56.421Z,25.57
2018-11-23T20:44:23.558Z,30.90
2018-11-23T20:46:50.689Z,28.60
2018-11-23T20:49:24.852Z,28.03
2018-11-23T20:51:51.976Z,27.97
2018-11-23T20:54:19.122Z,27.50
2018-11-23T20:56:46.333Z,34.30
2018-11-23T20:59:13.466Z,26.13
2018-11-23T21:01:40.601Z,30.80
2018-11-23T21:04:07.732Z,29.20
2018-11-23T21:06:34.891Z,27.53
2018-11-23T21:09:02.131Z,26.10
2018-11-23T21:11:29.281Z,25.50
2018-11-23T21:13:56.450Z,30.67
2018-11-23T21:16:23.575Z,29.30
2018-11-23T21:18:50.784Z,29.17
2018-11-23T21:21:17.929Z,28.37
2018-11-23T21:23:45.056Z,32.50
2018-11-23T21:26:12.195Z,26.73
2018-11-23T21:28:39.348Z,24.83
2018-11-23T21:31:06.517Z,23.80
2018-11-23T21:33:33.656Z,26.97
2018-11-23T21:36:00.792Z,34.03
2018-11-23T21:38:27.944Z,30.50
2018-11-23T21:40:55.064Z,32.33
2018-11-23T21:43:22.227Z,29.93
2018-11-23T21:45:49.354Z,29.13
2018-11-23T21:48:16.514Z,32.63
2018-11-23T21:50:43.648Z,28.03
2018-11-23T21:53:10.781Z,31.57
2018-11-23T21:55:37.912Z,29.20
2018-11-23T21:58:05.085Z,33.00
2018-11-23T22:00:32.213Z,26.70
2018-11-23T22:02:59.384Z,26.90
2018-11-23T22:05:26.526Z,25.13
2018-11-23T22:07:53.655Z,33.00
2018-11-23T22:10:20.801Z,30.47
2018-11-23T22:12:47.962Z,30.33
2018-11-23T22:15:17.345Z,28.60
2018-11-23T22:17:44.675Z,25.30
2018-11-23T22:20:12.968Z,23.20
2018-11-23T22:22:40.160Z,30.40
2018-11-23T22:25:09.517Z,29.97
2018-11-23T22:27:36.701Z,24.33
2018-11-23T22:30:08.025Z,23.60
2018-11-23T22:32:35.161Z,26.60
2018-11-23T22:35:02.321Z,31.07
2018-11-23T22:37:29.451Z,29.63
2018-11-23T22:39:56.560Z,29.33
2018-11-23T22:42:23.675Z,26.00
2018-11-23T22:44:50.789Z,32.17
2018-11-23T22:47:17.898Z,26.57
2018-11-23T22:49:45.029Z,33.20
2018-11-23T22:52:12.143Z,28.63
2018-11-23T22:54:39.259Z,30.57
2018-11-23T22:57:11.627Z,27.20
2018-11-23T22:59:33.732Z,27.73
2018-11-23T23:02:00.865Z,30.70
2018-11-23T23:04:27.992Z,24.87
2018-11-23T23:06:55.119Z,29.10
2018-11-23T23:09:22.246Z,25.97
2018-11-23T23:11:49.365Z,26.97
2018-11-23T23:14:16.515Z,28.50
2018-11-23T23:16:43.648Z,28.00
2018-11-23T23:19:10.768Z,27.30
2018-11-23T23:21:37.875Z,29.27
2018-11-23T23:24:11.673Z,24.17
2018-11-23T23:26:32.199Z,25.23
2018-11-23T23:28:59.364Z,31.03
2018-11-23T23:31:26.475Z,24.50
2018-11-23T23:33:53.613Z,28.93
2018-11-23T23:36:20.741Z,26.90
2018-11-23T23:38:47.852Z,27.40
2018-11-23T23:41:14.972Z,29.37
2018-11-23T23:43:42.078Z,27.67
2018-11-23T23:46:09.199Z,26.63
2018-11-23T23:48:36.359Z,25.97
2018-11-23T23:51:04.482Z,27.47
2018-11-23T23:53:31.605Z,29.50
2018-11-23T23:55:58.719Z,25.33
2018-11-23T23:58:25.872Z,26.63
